createdAt,value
2022-08-28T00:00:18.771Z,18.74
2022-08-28T00:03:05.714Z,18.74
2022-08-28T00:05:33.911Z,18.73
2022-08-28T00:08:01.325Z,18.75
2022-08-28T00:10:28.890Z,18.76
2022-08-28T00:12:57.638Z,18.73
2022-08-28T00:15:31.729Z,18.72
2022-08-28T00:18:00.078Z,18.69
2022-08-28T00:20:28.498Z,18.70
2022-08-28T00:22:55.958Z,18.67
2022-08-28T00:25:25.447Z,18.64
2022-08-28T00:27:57.554Z,18.67
2022-08-28T00:30:28.248Z,18.68
2022-08-28T00:33:06.074Z,18.67
2022-08-28T00:35:33.538Z,18.63
2022-08-28T00:38:00.923Z,18.63
2022-08-28T00:40:33.839Z,18.62
2022-08-28T00:43:06.025Z,18.63
2022-08-28T00:45:39.266Z,18.62
2022-08-28T00:48:07.191Z,18.61
2022-08-28T00:50:56.756Z,18.60
2022-08-28T00:53:29.961Z,18.58
2022-08-28T00:56:04.078Z,18.58
2022-08-28T00:58:37.348Z,18.63
2022-08-28T01:01:05.131Z,18.60
2022-08-28T01:03:32.032Z,18.59
2022-08-28T01:05:59.393Z,18.56
2022-08-28T01:08:26.398Z,18.57
2022-08-28T01:11:01.479Z,18.52
2022-08-28T01:13:29.604Z,18.52
2022-08-28T01:15:58.379Z,18.49
2022-08-28T01:18:30.614Z,18.51
2022-08-28T01:21:10.168Z,18.50
2022-08-28T01:23:56.977Z,18.47
2022-08-28T01:26:28.435Z,18.44
2022-08-28T01:28:58.419Z,18.41
2022-08-28T01:31:27.507Z,18.42
2022-08-28T01:33:55.193Z,18.41
2022-08-28T01:36:22.276Z,18.43
2022-08-28T01:38:53.305Z,18.43
2022-08-28T01:41:23.027Z,18.43
2022-08-28T01:43:50.028Z,18.41
2022-08-28T01:46:17.465Z,18.40
2022-08-28T01:48:44.733Z,18.37
2022-08-28T01:51:12.995Z,18.36
2022-08-28T01:53:43.353Z,18.38
2022-08-28T01:56:16.385Z,18.37
2022-08-28T01:58:44.172Z,18.38
2022-08-28T02:01:13.355Z,18.39
2022-08-28T02:03:45.582Z,18.36
2022-08-28T02:06:17.973Z,18.33
2022-08-28T02:08:47.013Z,18.29
2022-08-28T02:11:19.642Z,18.26
2022-08-28T02:13:46.722Z,18.20
2022-08-28T02:16:18.150Z,18.14
2022-08-28T02:18:45.117Z,18.11
2022-08-28T02:21:15.199Z,18.09
2022-08-28T02:23:44.339Z,18.08
2022-08-28T02:26:12.819Z,18.07
2022-08-28T02:28:41.272Z,18.05
2022-08-28T02:31:09.492Z,18.02
2022-08-28T02:33:41.403Z,18.07
2022-08-28T02:36:10.793Z,18.08
2022-08-28T02:38:38.486Z,18.06
2022-08-28T02:41:06.822Z,18.07
2022-08-28T02:43:34.731Z,18.09
2022-08-28T02:46:05.165Z,18.10
2022-08-28T02:48:34.969Z,18.09
2022-08-28T02:51:05.923Z,18.06
2022-08-28T02:53:32.958Z,18.04
2022-08-28T02:56:01.905Z,18.03
2022-08-28T02:58:32.904Z,18.01
2022-08-28T03:01:01.798Z,17.98
2022-08-28T03:03:33.318Z,17.99
2022-08-28T03:06:02.042Z,17.99
2022-08-28T03:08:30.290Z,17.97
2022-08-28T03:10:57.453Z,17.97
2022-08-28T03:13:27.109Z,17.96
2022-08-28T03:15:55.675Z,17.97
2022-08-28T03:18:25.254Z,17.99
2022-08-28T03:20:53.517Z,18.04
2022-08-28T03:23:26.421Z,18.04
2022-08-28T03:25:54.086Z,18.06
2022-08-28T03:28:21.193Z,18.09
2022-08-28T03:30:50.990Z,18.09
2022-08-28T03:33:19.458Z,18.08
2022-08-28T03:35:46.580Z,18.14
2022-08-28T03:38:13.881Z,18.14
2022-08-28T03:40:45.655Z,18.10
2022-08-28T03:43:15.236Z,18.09
2022-08-28T03:45:52.191Z,18.07
2022-08-28T03:48:21.681Z,18.07
2022-08-28T03:50:49.043Z,18.07
2022-08-28T03:53:18.390Z,18.08
2022-08-28T03:55:45.547Z,18.09
2022-08-28T03:58:18.787Z,18.07
2022-08-28T04:00:46.793Z,18.06
2022-08-28T04:03:14.169Z,18.03
2022-08-28T04:05:42.337Z,18.03
2022-08-28T04:08:10.464Z,18.02
2022-08-28T04:10:38.306Z,18.04
2022-08-28T04:13:05.230Z,18.04
2022-08-28T04:15:32.405Z,18.10
2022-08-28T04:18:00.431Z,18.15
2022-08-28T04:20:28.364Z,18.19
2022-08-28T04:22:55.927Z,18.27
2022-08-28T04:25:23.866Z,18.34
2022-08-28T04:27:57.504Z,18.37
2022-08-28T04:30:24.765Z,18.40
2022-08-28T04:32:51.634Z,18.44
2022-08-28T04:35:18.666Z,18.51
2022-08-28T04:37:46.223Z,18.59
2022-08-28T04:40:14.940Z,18.62
2022-08-28T04:42:42.591Z,18.68
2022-08-28T04:45:10.081Z,18.72
2022-08-28T04:47:38.920Z,18.72
2022-08-28T04:50:07.586Z,18.78
2022-08-28T04:52:34.850Z,18.77
2022-08-28T04:55:01.948Z,18.78
2022-08-28T04:57:35.712Z,18.80
2022-08-28T05:00:06.455Z,18.81
2022-08-28T05:02:33.558Z,18.81
2022-08-28T05:05:00.548Z,18.78
2022-08-28T05:07:27.810Z,18.83
2022-08-28T05:09:57.023Z,18.83
2022-08-28T05:12:24.145Z,18.82
2022-08-28T05:14:51.545Z,18.81
2022-08-28T05:17:20.736Z,18.84
2022-08-28T05:19:48.335Z,18.87
2022-08-28T05:22:17.680Z,18.89
2022-08-28T05:24:44.633Z,18.92
2022-08-28T05:27:11.687Z,18.94
2022-08-28T05:29:38.821Z,19.01
2022-08-28T05:32:09.425Z,19.05
2022-08-28T05:34:36.428Z,19.11
2022-08-28T05:37:08.873Z,19.12
2022-08-28T05:39:36.044Z,19.17
2022-08-28T05:42:03.117Z,19.21
2022-08-28T05:44:33.056Z,19.26
2022-08-28T05:47:00.185Z,19.37
2022-08-28T05:49:28.489Z,19.45
2022-08-28T05:51:55.729Z,19.38
2022-08-28T05:54:22.960Z,19.55
2022-08-28T05:56:49.931Z,19.64
2022-08-28T05:59:17.583Z,19.67
2022-08-28T06:01:50.453Z,19.78
2022-08-28T06:04:23.111Z,19.82
2022-08-28T06:06:50.675Z,19.89
2022-08-28T06:09:28.777Z,20.00
2022-08-28T06:11:59.116Z,20.14
2022-08-28T06:14:27.024Z,20.20
2022-08-28T06:16:55.775Z,20.28
2022-08-28T06:19:24.884Z,20.39
2022-08-28T06:21:57.356Z,20.52
2022-08-28T06:24:26.396Z,20.51
2022-08-28T06:26:56.542Z,20.62
2022-08-28T06:29:27.441Z,20.72
2022-08-28T06:31:57.947Z,20.71
2022-08-28T06:34:25.833Z,20.83
2022-08-28T06:36:54.373Z,20.93
2022-08-28T06:39:24.107Z,20.92
2022-08-28T06:41:51.269Z,21.03
2022-08-28T06:44:20.655Z,21.08
2022-08-28T06:46:49.624Z,21.15
2022-08-28T06:49:16.743Z,21.13
2022-08-28T06:51:44.075Z,21.09
2022-08-28T06:54:11.114Z,21.22
2022-08-28T06:56:38.984Z,21.13
2022-08-28T06:59:06.123Z,21.15
2022-08-28T07:01:35.573Z,21.22
2022-08-28T07:04:09.910Z,21.30
2022-08-28T07:06:40.986Z,21.33
2022-08-28T07:09:11.431Z,21.35
2022-08-28T07:11:39.733Z,21.42
2022-08-28T07:14:07.543Z,21.60
2022-08-28T07:16:38.609Z,21.79
2022-08-28T07:19:13.198Z,22.08
2022-08-28T07:21:43.701Z,22.07
2022-08-28T07:24:13.432Z,22.50
2022-08-28T07:26:41.913Z,22.52
2022-08-28T07:29:09.936Z,22.62
2022-08-28T07:31:41.518Z,23.07
2022-08-28T07:34:10.548Z,23.13
2022-08-28T07:36:38.976Z,23.10
2022-08-28T07:39:07.775Z,22.81
2022-08-28T07:41:39.347Z,22.54
2022-08-28T07:44:26.867Z,22.52
2022-08-28T07:46:56.181Z,22.51
2022-08-28T07:49:31.453Z,22.22
2022-08-28T07:52:01.657Z,21.98
2022-08-28T07:54:28.606Z,21.67
2022-08-28T07:56:55.644Z,21.67
2022-08-28T07:59:23.148Z,21.65
2022-08-28T08:01:52.435Z,21.61
2022-08-28T08:04:21.678Z,21.51
2022-08-28T08:06:54.388Z,21.30
2022-08-28T08:09:28.532Z,21.17
2022-08-28T08:11:57.837Z,21.02
2022-08-28T08:14:28.689Z,20.98
2022-08-28T08:16:56.099Z,20.93
2022-08-28T08:19:23.791Z,20.87
2022-08-28T08:21:55.086Z,20.84
2022-08-28T08:24:26.807Z,20.80
2022-08-28T08:27:00.622Z,20.78
2022-08-28T08:29:35.824Z,20.84
2022-08-28T08:32:08.108Z,20.85
2022-08-28T08:34:41.567Z,20.85
2022-08-28T08:37:09.451Z,20.78
2022-08-28T08:39:38.203Z,20.80
2022-08-28T08:42:10.638Z,20.76
2022-08-28T08:44:44.002Z,20.81
2022-08-28T08:47:30.878Z,20.92
2022-08-28T08:50:07.261Z,20.92
2022-08-28T08:52:43.364Z,20.96
2022-08-28T08:55:14.977Z,21.01
2022-08-28T08:57:46.195Z,21.06
2022-08-28T09:00:18.697Z,21.15
2022-08-28T09:02:55.950Z,21.16
2022-08-28T09:05:50.908Z,21.24
2022-08-28T09:08:49.743Z,21.39
2022-08-28T09:11:57.287Z,21.56
2022-08-28T09:15:08.998Z,21.71
2022-08-28T09:18:08.492Z,21.94
2022-08-28T09:20:35.583Z,22.11
2022-08-28T09:23:12.724Z,22.15
2022-08-28T09:25:53.243Z,22.20
2022-08-28T09:28:26.121Z,22.50
2022-08-28T09:31:04.390Z,22.57
2022-08-28T09:33:37.426Z,22.42
2022-08-28T09:36:35.172Z,22.39
2022-08-28T09:39:29.337Z,22.57
2022-08-28T09:42:39.901Z,22.72
2022-08-28T09:45:14.045Z,22.98
2022-08-28T09:47:47.089Z,23.18
2022-08-28T09:50:22.694Z,23.30
2022-08-28T09:52:51.648Z,23.12
2022-08-28T09:55:27.658Z,22.77
2022-08-28T09:57:54.912Z,22.44
2022-08-28T10:00:23.011Z,22.27
2022-08-28T10:03:08.555Z,22.10
2022-08-28T10:05:40.027Z,22.14
2022-08-28T10:08:45.585Z,22.24
2022-08-28T10:11:25.867Z,22.38
2022-08-28T10:14:38.291Z,22.65
2022-08-28T10:17:31.594Z,22.87
2022-08-28T10:20:07.804Z,23.19
2022-08-28T10:22:49.833Z,23.19
2022-08-28T10:25:43.461Z,23.17
2022-08-28T10:28:46.800Z,23.01
2022-08-28T10:31:56.733Z,22.90
2022-08-28T10:34:34.567Z,22.85
2022-08-28T10:37:08.005Z,22.73
2022-08-28T10:39:59.065Z,22.69
2022-08-28T10:42:38.561Z,22.57
2022-08-28T10:45:17.756Z,22.69
2022-08-28T10:47:52.259Z,22.93
2022-08-28T10:50:23.797Z,23.21
2022-08-28T10:53:03.405Z,23.71
2022-08-28T10:55:43.969Z,24.54
2022-08-28T10:58:21.524Z,24.82
2022-08-28T11:01:02.533Z,24.99
2022-08-28T11:03:37.930Z,24.88
2022-08-28T11:06:14.427Z,24.94
2022-08-28T11:08:42.233Z,24.97
2022-08-28T11:11:17.653Z,24.86
2022-08-28T11:13:54.587Z,24.68
2022-08-28T11:16:28.268Z,24.98
2022-08-28T11:19:15.848Z,25.12
2022-08-28T11:21:59.881Z,24.90
2022-08-28T11:25:02.427Z,24.82
2022-08-28T11:27:37.717Z,24.89
2022-08-28T11:30:11.824Z,24.82
2022-08-28T11:32:39.064Z,24.89
2022-08-28T11:35:37.759Z,24.79
2022-08-28T11:38:05.626Z,25.21
2022-08-28T11:40:32.745Z,24.91
2022-08-28T11:43:16.534Z,25.07
2022-08-28T11:45:48.154Z,25.10
2022-08-28T11:48:34.056Z,25.04
2022-08-28T11:51:07.143Z,25.11
2022-08-28T11:53:53.950Z,24.70
2022-08-28T11:56:41.170Z,24.65
2022-08-28T11:59:39.191Z,24.84
2022-08-28T12:02:40.987Z,24.91
2022-08-28T12:05:17.221Z,24.87
2022-08-28T12:07:51.028Z,25.12
2022-08-28T12:10:27.871Z,25.12
2022-08-28T12:12:57.903Z,25.01
2022-08-28T12:15:27.963Z,25.12
2022-08-28T12:18:11.897Z,24.90
2022-08-28T12:20:51.295Z,24.85
2022-08-28T12:23:25.758Z,25.14
2022-08-28T12:26:05.713Z,25.32
2022-08-28T12:28:56.093Z,25.22
2022-08-28T12:31:53.911Z,25.31
2022-08-28T12:34:26.902Z,25.14
2022-08-28T12:37:05.649Z,25.06
2022-08-28T12:39:34.258Z,25.24
2022-08-28T12:42:03.924Z,25.19
2022-08-28T12:44:33.886Z,25.32
2022-08-28T12:47:01.399Z,25.36
2022-08-28T12:49:37.973Z,25.18
2022-08-28T12:52:16.957Z,25.02
2022-08-28T12:54:49.622Z,24.77
2022-08-28T12:57:27.376Z,24.80
2022-08-28T13:00:06.645Z,24.76
2022-08-28T13:02:34.747Z,24.98
2022-08-28T13:05:06.421Z,24.91
2022-08-28T13:08:02.005Z,25.32
2022-08-28T13:10:29.899Z,25.37
2022-08-28T13:13:10.743Z,25.69
2022-08-28T13:15:55.415Z,25.82
2022-08-28T13:18:44.878Z,26.09
2022-08-28T13:21:32.943Z,26.19
2022-08-28T13:24:21.820Z,26.12
2022-08-28T13:27:12.228Z,26.24
2022-08-28T13:30:16.720Z,26.45
2022-08-28T13:32:56.336Z,26.52
2022-08-28T13:35:23.640Z,26.34
2022-08-28T13:37:54.152Z,26.25
2022-08-28T13:40:55.896Z,26.27
2022-08-28T13:43:11.939Z,26.20
2022-08-28T13:45:44.357Z,26.10
2022-08-28T13:48:18.664Z,25.94
2022-08-28T13:50:51.571Z,25.73
2022-08-28T13:53:20.368Z,25.49
2022-08-28T13:55:51.026Z,25.49
2022-08-28T13:58:18.438Z,25.58
2022-08-28T14:00:48.515Z,25.69
2022-08-28T14:03:34.704Z,25.65
2022-08-28T14:06:03.910Z,25.67
2022-08-28T14:08:31.161Z,25.53
2022-08-28T14:10:58.918Z,25.69
2022-08-28T14:13:27.824Z,25.69
2022-08-28T14:15:58.561Z,25.71
2022-08-28T14:18:28.469Z,25.73
2022-08-28T14:20:55.729Z,25.55
2022-08-28T14:23:23.177Z,25.27
2022-08-28T14:25:50.951Z,25.18
2022-08-28T14:28:21.288Z,25.06
2022-08-28T14:30:50.759Z,24.92
2022-08-28T14:33:20.778Z,24.77
2022-08-28T14:35:49.494Z,24.71
2022-08-28T14:38:17.272Z,24.60
2022-08-28T14:40:45.689Z,24.55
2022-08-28T14:43:14.993Z,24.57
2022-08-28T14:45:47.445Z,24.49
2022-08-28T14:48:17.329Z,24.58
2022-08-28T14:50:47.755Z,24.51
2022-08-28T14:53:16.086Z,24.55
2022-08-28T14:55:45.548Z,24.60
2022-08-28T14:58:13.552Z,24.65
2022-08-28T15:00:46.217Z,24.71
2022-08-28T15:03:16.924Z,24.63
2022-08-28T15:05:45.117Z,24.65
2022-08-28T15:08:17.558Z,24.66
2022-08-28T15:10:45.058Z,24.63
2022-08-28T15:13:12.988Z,24.60
2022-08-28T15:15:44.941Z,24.64
2022-08-28T15:18:12.596Z,24.54
2022-08-28T15:20:45.267Z,24.45
2022-08-28T15:23:14.682Z,24.25
2022-08-28T15:25:42.672Z,23.81
2022-08-28T15:28:10.024Z,23.73
2022-08-28T15:30:38.373Z,23.51
2022-08-28T15:33:06.798Z,23.26
2022-08-28T15:35:35.682Z,23.12
2022-08-28T15:38:03.626Z,23.08
2022-08-28T15:40:49.948Z,23.16
2022-08-28T15:43:17.438Z,23.21
2022-08-28T15:45:45.017Z,23.26
2022-08-28T15:48:13.352Z,23.26
2022-08-28T15:50:41.949Z,23.41
2022-08-28T15:53:12.435Z,23.45
2022-08-28T15:55:39.969Z,23.48
2022-08-28T15:58:14.126Z,23.50
2022-08-28T16:00:42.271Z,23.39
2022-08-28T16:03:12.332Z,23.28
2022-08-28T16:05:40.877Z,23.14
2022-08-28T16:08:10.480Z,23.01
2022-08-28T16:10:38.361Z,22.88
2022-08-28T16:13:06.795Z,22.60
2022-08-28T16:15:34.451Z,22.29
2022-08-28T16:18:02.133Z,22.06
2022-08-28T16:20:29.218Z,21.80
2022-08-28T16:22:56.335Z,21.63
2022-08-28T16:25:23.545Z,21.52
2022-08-28T16:27:50.965Z,21.45
2022-08-28T16:30:18.643Z,21.41
2022-08-28T16:32:50.724Z,21.14
2022-08-28T16:35:18.671Z,20.92
2022-08-28T16:37:48.388Z,20.82
2022-08-28T16:40:15.753Z,20.64
2022-08-28T16:42:51.965Z,20.55
2022-08-28T16:45:19.697Z,20.49
2022-08-28T16:47:50.007Z,20.39
2022-08-28T16:50:17.680Z,20.32
2022-08-28T16:52:46.699Z,20.27
2022-08-28T16:55:16.482Z,20.22
2022-08-28T16:57:44.150Z,20.13
2022-08-28T17:00:13.595Z,20.08
2022-08-28T17:02:42.369Z,20.05
2022-08-28T17:05:12.269Z,19.98
2022-08-28T17:07:39.942Z,19.97
2022-08-28T17:10:12.167Z,19.94
2022-08-28T17:12:41.923Z,19.93
2022-08-28T17:15:11.411Z,19.90
2022-08-28T17:17:39.061Z,19.83
2022-08-28T17:20:07.915Z,19.80
2022-08-28T17:22:37.326Z,19.77
2022-08-28T17:25:13.914Z,19.71
2022-08-28T17:27:41.636Z,19.72
2022-08-28T17:30:10.059Z,19.65
2022-08-28T17:32:37.401Z,19.65
2022-08-28T17:35:05.644Z,19.59
2022-08-28T17:37:36.558Z,19.58
2022-08-28T17:40:13.978Z,19.55
2022-08-28T17:42:46.303Z,19.52
2022-08-28T17:45:17.621Z,19.49
2022-08-28T17:47:44.929Z,19.52
2022-08-28T17:50:12.793Z,19.48
2022-08-28T17:52:40.687Z,19.45
2022-08-28T17:55:08.378Z,19.44
2022-08-28T17:57:35.911Z,19.45
2022-08-28T18:00:07.204Z,19.43
2022-08-28T18:02:42.290Z,19.39
2022-08-28T18:05:12.320Z,19.37
2022-08-28T18:07:41.976Z,19.33
2022-08-28T18:10:12.039Z,19.32
2022-08-28T18:12:41.288Z,19.27
2022-08-28T18:15:13.210Z,19.26
2022-08-28T18:17:42.252Z,19.22
2022-08-28T18:20:11.921Z,19.19
2022-08-28T18:22:39.363Z,19.16
2022-08-28T18:25:29.814Z,19.13
2022-08-28T18:27:59.704Z,19.12
2022-08-28T18:30:27.705Z,19.06
2022-08-28T18:32:58.545Z,19.03
2022-08-28T18:35:31.830Z,19.00
2022-08-28T18:38:00.410Z,18.97
2022-08-28T18:40:28.430Z,18.95
2022-08-28T18:42:56.180Z,18.93
2022-08-28T18:45:23.845Z,18.96
2022-08-28T18:47:51.515Z,18.91
2022-08-28T18:50:22.453Z,18.87
2022-08-28T18:52:52.008Z,18.89
2022-08-28T18:55:21.545Z,18.88
2022-08-28T18:57:51.452Z,18.87
2022-08-28T19:00:21.278Z,18.91
2022-08-28T19:02:49.785Z,18.90
2022-08-28T19:05:21.859Z,18.91
2022-08-28T19:07:49.950Z,18.89
2022-08-28T19:10:32.853Z,18.84
2022-08-28T19:13:02.352Z,18.87
2022-08-28T19:15:31.129Z,18.91
2022-08-28T19:18:01.109Z,18.91
2022-08-28T19:20:29.698Z,18.95
2022-08-28T19:22:58.426Z,18.95
2022-08-28T19:25:29.508Z,18.97
2022-08-28T19:28:02.290Z,19.00
2022-08-28T19:30:35.387Z,19.03
2022-08-28T19:33:04.662Z,19.06
2022-08-28T19:35:34.065Z,19.11
2022-08-28T19:38:01.966Z,19.09
2022-08-28T19:40:29.696Z,19.10
2022-08-28T19:42:58.215Z,19.08
2022-08-28T19:45:28.634Z,19.09
2022-08-28T19:47:59.930Z,19.10
2022-08-28T19:50:30.106Z,19.11
2022-08-28T19:52:57.995Z,19.11
2022-08-28T19:55:28.061Z,19.15
2022-08-28T19:57:57.076Z,19.13
2022-08-28T20:00:29.911Z,19.10
2022-08-28T20:02:58.100Z,19.11
2022-08-28T20:05:26.412Z,19.11
2022-08-28T20:07:53.997Z,19.10
2022-08-28T20:10:22.119Z,19.09
2022-08-28T20:12:49.503Z,19.07
2022-08-28T20:15:19.387Z,19.06
2022-08-28T20:17:49.776Z,19.05
2022-08-28T20:20:20.166Z,19.06
2022-08-28T20:22:49.329Z,19.04
2022-08-28T20:25:22.286Z,19.04
2022-08-28T20:27:50.971Z,19.04
2022-08-28T20:30:18.437Z,19.02
2022-08-28T20:32:48.548Z,19.03
2022-08-28T20:35:17.348Z,18.97
2022-08-28T20:37:49.326Z,18.96
2022-08-28T20:40:22.015Z,18.96
2022-08-28T20:42:50.199Z,18.96
2022-08-28T20:45:18.858Z,18.95
2022-08-28T20:47:46.632Z,18.96
2022-08-28T20:50:15.639Z,18.91
2022-08-28T20:52:43.730Z,18.90
2022-08-28T20:55:13.116Z,18.86
2022-08-28T20:57:40.773Z,18.84
2022-08-28T21:00:10.830Z,18.83
2022-08-28T21:02:38.583Z,18.79
2022-08-28T21:05:09.890Z,18.77
2022-08-28T21:07:37.148Z,18.73
2022-08-28T21:10:07.946Z,18.73
2022-08-28T21:12:40.502Z,18.69
2022-08-28T21:15:11.053Z,18.69
2022-08-28T21:17:40.129Z,18.65
2022-08-28T21:20:14.214Z,18.62
2022-08-28T21:22:42.093Z,18.60
2022-08-28T21:25:11.206Z,18.59
2022-08-28T21:27:39.542Z,18.58
2022-08-28T21:30:11.658Z,18.60
2022-08-28T21:32:42.174Z,18.61
2022-08-28T21:35:12.044Z,18.64
2022-08-28T21:37:42.410Z,18.65
2022-08-28T21:40:12.655Z,18.65
2022-08-28T21:42:41.670Z,18.66
2022-08-28T21:45:12.000Z,18.71
2022-08-28T21:47:42.496Z,18.72
2022-08-28T21:50:10.988Z,18.76
2022-08-28T21:52:40.081Z,18.74
2022-08-28T21:55:11.472Z,18.74
2022-08-28T21:57:41.188Z,18.75
2022-08-28T22:00:19.772Z,18.78
2022-08-28T22:02:48.189Z,18.79
2022-08-28T22:05:16.538Z,18.80
2022-08-28T22:07:45.337Z,18.84
2022-08-28T22:10:12.854Z,18.81
2022-08-28T22:12:42.332Z,18.81
2022-08-28T22:15:09.827Z,18.79
2022-08-28T22:17:37.368Z,18.83
2022-08-28T22:20:05.130Z,18.79
2022-08-28T22:22:50.839Z,18.76
2022-08-28T22:25:18.708Z,18.73
2022-08-28T22:27:46.280Z,18.75
2022-08-28T22:30:13.611Z,18.77
2022-08-28T22:32:46.258Z,18.77
2022-08-28T22:35:13.405Z,18.78
2022-08-28T22:37:40.515Z,18.81
2022-08-28T22:40:09.533Z,18.81
2022-08-28T22:42:40.640Z,18.79
2022-08-28T22:45:08.470Z,18.83
2022-08-28T22:47:36.449Z,18.81
2022-08-28T22:50:04.854Z,18.85
2022-08-28T22:52:32.656Z,18.84
2022-08-28T22:54:59.890Z,18.84
2022-08-28T22:57:29.621Z,18.84
2022-08-28T23:00:01.589Z,18.79
2022-08-28T23:02:29.008Z,18.80
2022-08-28T23:04:56.363Z,18.77
2022-08-28T23:07:23.616Z,18.80
2022-08-28T23:09:51.363Z,18.81
2022-08-28T23:12:18.447Z,18.77
2022-08-28T23:14:48.649Z,18.75
2022-08-28T23:17:21.090Z,18.72
2022-08-28T23:19:48.557Z,18.68
2022-08-28T23:22:18.156Z,18.66
2022-08-28T23:24:47.219Z,18.67
2022-08-28T23:27:35.257Z,18.67
2022-08-28T23:30:06.241Z,18.68
2022-08-28T23:32:35.599Z,18.65
2022-08-28T23:35:07.006Z,18.71
2022-08-28T23:37:36.779Z,18.73
2022-08-28T23:40:08.555Z,18.72
2022-08-28T23:42:36.462Z,18.70
2022-08-28T23:45:05.168Z,18.71
2022-08-28T23:47:32.497Z,18.68
2022-08-28T23:50:02.726Z,18.68
2022-08-28T23:52:32.198Z,18.68
2022-08-28T23:55:02.561Z,18.69
2022-08-28T23:57:31.174Z,18.67
